sensor_id;sensor_type;location;lat;lon;timestamp;temperature;humidity
28530;DHT22;15737;49.760;6.632;2023-02-04T00:01:23;8.40;99.90
28530;DHT22;15737;49.760;6.632;2023-02-04T00:03:49;8.40;99.90
28530;DHT22;15737;49.760;6.632;2023-02-04T00:06:14;8.50;99.90
28530;DHT22;15737;49.760;6.632;2023-02-04T00:08:40;8.50;99.90
28530;DHT22;15737;49.760;6.632;2023-02-04T00:11:05;8.50;99.90
28530;DHT22;15737;49.760;6.632;2023-02-04T00:13:31;8.50;99.90
28530;DHT22;15737;49.760;6.632;2023-02-04T00:15:56;8.50;99.90
28530;DHT22;15737;49.760;6.632;2023-02-04T00:18:22;8.50;99.90
28530;DHT22;15737;49.760;6.632;2023-02-04T00:20:47;8.50;99.90
28530;DHT22;15737;49.760;6.632;2023-02-04T00:23:13;8.50;99.90
28530;DHT22;15737;49.760;6.632;2023-02-04T00:25:38;8.50;99.90
28530;DHT22;15737;49.760;6.632;2023-02-04T00:28:04;8.50;99.90
28530;DHT22;15737;49.760;6.632;2023-02-04T00:30:30;8.50;99.90
28530;DHT22;15737;49.760;6.632;2023-02-04T00:32:56;8.50;99.90
28530;DHT22;15737;49.760;6.632;2023-02-04T00:35:22;8.50;99.90
28530;DHT22;15737;49.760;6.632;2023-02-04T00:37:49;8.50;99.90
28530;DHT22;15737;49.760;6.632;2023-02-04T00:40:14;8.50;99.90
28530;DHT22;15737;49.760;6.632;2023-02-04T00:42:40;8.50;99.90
28530;DHT22;15737;49.760;6.632;2023-02-04T00:45:06;8.60;99.90
28530;DHT22;15737;49.760;6.632;2023-02-04T00:47:32;8.60;99.90
28530;DHT22;15737;49.760;6.632;2023-02-04T00:49:57;8.60;99.90
28530;DHT22;15737;49.760;6.632;2023-02-04T00:52:23;8.60;99.90
28530;DHT22;15737;49.760;6.632;2023-02-04T00:54:48;8.60;99.90
28530;DHT22;15737;49.760;6.632;2023-02-04T00:57:14;8.60;99.90
28530;DHT22;15737;49.760;6.632;2023-02-04T00:59:39;8.60;99.90
28530;DHT22;15737;49.760;6.632;2023-02-04T01:02:05;8.60;99.90
28530;DHT22;15737;49.760;6.632;2023-02-04T01:04:31;8.60;99.90
28530;DHT22;15737;49.760;6.632;2023-02-04T01:06:56;8.60;99.90
28530;DHT22;15737;49.760;6.632;2023-02-04T01:09:22;8.70;99.90
28530;DHT22;15737;49.760;6.632;2023-02-04T01:11:48;8.70;99.90
28530;DHT22;15737;49.760;6.632;2023-02-04T01:14:14;8.70;99.90
28530;DHT22;15737;49.760;6.632;2023-02-04T01:16:39;8.70;99.90
28530;DHT22;15737;49.760;6.632;2023-02-04T01:19:05;8.80;99.90
28530;DHT22;15737;49.760;6.632;2023-02-04T01:21:30;8.80;99.90
28530;DHT22;15737;49.760;6.632;2023-02-04T01:23:56;8.80;99.90
28530;DHT22;15737;49.760;6.632;2023-02-04T01:26:22;8.80;99.90
28530;DHT22;15737;49.760;6.632;2023-02-04T01:28:48;8.80;99.90
28530;DHT22;15737;49.760;6.632;2023-02-04T01:31:14;8.80;99.90
28530;DHT22;15737;49.760;6.632;2023-02-04T01:33:39;8.80;99.90
28530;DHT22;15737;49.760;6.632;2023-02-04T01:36:05;8.80;99.90
28530;DHT22;15737;49.760;6.632;2023-02-04T01:38:30;8.80;99.90
28530;DHT22;15737;49.760;6.632;2023-02-04T01:40:56;8.80;99.90
28530;DHT22;15737;49.760;6.632;2023-02-04T01:43:22;8.80;99.90
28530;DHT22;15737;49.760;6.632;2023-02-04T01:45:49;8.90;99.90
28530;DHT22;15737;49.760;6.632;2023-02-04T01:48:16;8.80;99.90
28530;DHT22;15737;49.760;6.632;2023-02-04T01:50:52;8.80;99.90
28530;DHT22;15737;49.760;6.632;2023-02-04T01:53:23;8.80;99.90
28530;DHT22;15737;49.760;6.632;2023-02-04T01:55:51;8.80;99.90
28530;DHT22;15737;49.760;6.632;2023-02-04T01:58:17;8.80;99.90
28530;DHT22;15737;49.760;6.632;2023-02-04T02:00:42;8.70;99.90
28530;DHT22;15737;49.760;6.632;2023-02-04T02:03:08;8.80;99.90
28530;DHT22;15737;49.760;6.632;2023-02-04T02:05:38;8.80;99.90
28530;DHT22;15737;49.760;6.632;2023-02-04T02:08:05;8.70;99.90
28530;DHT22;15737;49.760;6.632;2023-02-04T02:10:32;8.70;99.90
28530;DHT22;15737;49.760;6.632;2023-02-04T02:12:58;8.70;99.90
28530;DHT22;15737;49.760;6.632;2023-02-04T02:15:24;8.70;99.90
28530;DHT22;15737;49.760;6.632;2023-02-04T02:17:54;8.70;99.90
28530;DHT22;15737;49.760;6.632;2023-02-04T02:20:22;8.70;99.90
28530;DHT22;15737;49.760;6.632;2023-02-04T02:27:58;8.80;99.90
28530;DHT22;15737;49.760;6.632;2023-02-04T02:30:25;8.80;99.90
28530;DHT22;15737;49.760;6.632;2023-02-04T02:32:52;8.80;99.90
28530;DHT22;15737;49.760;6.632;2023-02-04T02:35:18;8.90;99.90
28530;DHT22;15737;49.760;6.632;2023-02-04T02:37:44;8.90;99.90
28530;DHT22;15737;49.760;6.632;2023-02-04T02:40:10;8.80;99.90
28530;DHT22;15737;49.760;6.632;2023-02-04T02:42:36;8.80;99.90
28530;DHT22;15737;49.760;6.632;2023-02-04T02:45:12;8.70;99.90
28530;DHT22;15737;49.760;6.632;2023-02-04T02:47:40;8.60;99.90
28530;DHT22;15737;49.760;6.632;2023-02-04T02:50:07;8.50;99.90
28530;DHT22;15737;49.760;6.632;2023-02-04T02:52:37;8.40;99.90
28530;DHT22;15737;49.760;6.632;2023-02-04T02:55:02;8.30;99.90
28530;DHT22;15737;49.760;6.632;2023-02-04T02:57:28;8.30;99.90
28530;DHT22;15737;49.760;6.632;2023-02-04T02:59:54;8.30;99.90
28530;DHT22;15737;49.760;6.632;2023-02-04T03:02:21;8.40;99.90
28530;DHT22;15737;49.760;6.632;2023-02-04T03:04:53;8.30;99.90
28530;DHT22;15737;49.760;6.632;2023-02-04T03:07:20;8.30;99.90
28530;DHT22;15737;49.760;6.632;2023-02-04T03:09:46;8.20;99.90
28530;DHT22;15737;49.760;6.632;2023-02-04T03:12:12;8.20;99.90
28530;DHT22;15737;49.760;6.632;2023-02-04T03:14:38;8.10;99.90
28530;DHT22;15737;49.760;6.632;2023-02-04T03:17:05;8.10;99.90
28530;DHT22;15737;49.760;6.632;2023-02-04T03:19:32;8.10;99.90
28530;DHT22;15737;49.760;6.632;2023-02-04T03:21:59;8.10;99.90
28530;DHT22;15737;49.760;6.632;2023-02-04T03:24:24;8.10;99.90
28530;DHT22;15737;49.760;6.632;2023-02-04T03:26:50;8.10;99.90
28530;DHT22;15737;49.760;6.632;2023-02-04T03:29:16;8.20;99.90
28530;DHT22;15737;49.760;6.632;2023-02-04T03:31:41;8.20;99.90
28530;DHT22;15737;49.760;6.632;2023-02-04T03:34:07;8.10;99.90
28530;DHT22;15737;49.760;6.632;2023-02-04T03:36:33;8.10;99.90
28530;DHT22;15737;49.760;6.632;2023-02-04T03:38:58;8.10;99.90
28530;DHT22;15737;49.760;6.632;2023-02-04T03:41:24;8.10;99.90
28530;DHT22;15737;49.760;6.632;2023-02-04T03:43:49;8.10;99.90
28530;DHT22;15737;49.760;6.632;2023-02-04T03:46:15;8.10;99.90
28530;DHT22;15737;49.760;6.632;2023-02-04T03:48:40;8.00;99.90
28530;DHT22;15737;49.760;6.632;2023-02-04T03:51:06;8.00;99.90
28530;DHT22;15737;49.760;6.632;2023-02-04T03:53:31;7.90;99.90
28530;DHT22;15737;49.760;6.632;2023-02-04T03:55:57;7.90;99.90
28530;DHT22;15737;49.760;6.632;2023-02-04T04:00:51;8.00;99.90
28530;DHT22;15737;49.760;6.632;2023-02-04T04:03:17;7.90;99.90
28530;DHT22;15737;49.760;6.632;2023-02-04T04:05:43;7.90;99.90
28530;DHT22;15737;49.760;6.632;2023-02-04T04:08:08;7.90;99.90
28530;DHT22;15737;49.760;6.632;2023-02-04T04:10:34;7.90;99.90
28530;DHT22;15737;49.760;6.632;2023-02-04T04:12:59;7.90;99.90
28530;DHT22;15737;49.760;6.632;2023-02-04T04:15:25;7.80;99.90
28530;DHT22;15737;49.760;6.632;2023-02-04T04:17:50;7.80;99.90
28530;DHT22;15737;49.760;6.632;2023-02-04T04:20:16;7.70;99.90
28530;DHT22;15737;49.760;6.632;2023-02-04T04:22:41;7.70;99.90
28530;DHT22;15737;49.760;6.632;2023-02-04T04:25:07;7.60;99.90
28530;DHT22;15737;49.760;6.632;2023-02-04T04:27:33;7.60;99.90
28530;DHT22;15737;49.760;6.632;2023-02-04T04:29:59;7.60;99.90
28530;DHT22;15737;49.760;6.632;2023-02-04T04:32:24;7.70;99.90
28530;DHT22;15737;49.760;6.632;2023-02-04T04:34:50;7.70;99.90
28530;DHT22;15737;49.760;6.632;2023-02-04T04:37:15;7.60;99.90
28530;DHT22;15737;49.760;6.632;2023-02-04T04:39:41;7.60;99.90
28530;DHT22;15737;49.760;6.632;2023-02-04T04:42:06;7.60;99.90
28530;DHT22;15737;49.760;6.632;2023-02-04T04:44:32;7.60;99.90
28530;DHT22;15737;49.760;6.632;2023-02-04T04:46:57;7.60;99.90
28530;DHT22;15737;49.760;6.632;2023-02-04T04:49:23;7.60;99.90
28530;DHT22;15737;49.760;6.632;2023-02-04T04:51:49;7.50;99.90
28530;DHT22;15737;49.760;6.632;2023-02-04T04:54:14;7.50;99.90
28530;DHT22;15737;49.760;6.632;2023-02-04T04:56:40;7.50;99.90
28530;DHT22;15737;49.760;6.632;2023-02-04T04:59:05;7.40;99.90
28530;DHT22;15737;49.760;6.632;2023-02-04T05:01:31;7.30;99.90
28530;DHT22;15737;49.760;6.632;2023-02-04T05:03:57;7.20;99.90
28530;DHT22;15737;49.760;6.632;2023-02-04T05:06:22;7.10;99.90
28530;DHT22;15737;49.760;6.632;2023-02-04T05:08:53;7.10;99.90
28530;DHT22;15737;49.760;6.632;2023-02-04T05:11:19;7.00;99.90
28530;DHT22;15737;49.760;6.632;2023-02-04T05:13:45;7.00;99.90
28530;DHT22;15737;49.760;6.632;2023-02-04T05:16:10;6.90;99.90
28530;DHT22;15737;49.760;6.632;2023-02-04T05:18:39;6.80;99.90
28530;DHT22;15737;49.760;6.632;2023-02-04T05:21:06;6.80;99.90
28530;DHT22;15737;49.760;6.632;2023-02-04T05:23:32;6.80;99.90
28530;DHT22;15737;49.760;6.632;2023-02-04T05:25:58;6.80;99.90
28530;DHT22;15737;49.760;6.632;2023-02-04T05:28:23;6.90;99.90
28530;DHT22;15737;49.760;6.632;2023-02-04T05:30:49;6.90;99.90
28530;DHT22;15737;49.760;6.632;2023-02-04T05:33:15;6.90;99.90
28530;DHT22;15737;49.760;6.632;2023-02-04T05:35:40;6.90;99.90
28530;DHT22;15737;49.760;6.632;2023-02-04T05:38:06;6.90;99.90
28530;DHT22;15737;49.760;6.632;2023-02-04T05:40:31;6.90;99.90
28530;DHT22;15737;49.760;6.632;2023-02-04T05:42:57;6.90;99.90
28530;DHT22;15737;49.760;6.632;2023-02-04T05:45:22;6.90;99.90
28530;DHT22;15737;49.760;6.632;2023-02-04T05:47:48;7.00;99.90
28530;DHT22;15737;49.760;6.632;2023-02-04T05:50:14;6.90;99.90
28530;DHT22;15737;49.760;6.632;2023-02-04T05:52:39;6.80;99.90
28530;DHT22;15737;49.760;6.632;2023-02-04T05:55:06;6.80;99.90
28530;DHT22;15737;49.760;6.632;2023-02-04T05:57:31;6.70;99.90
28530;DHT22;15737;49.760;6.632;2023-02-04T05:59:57;6.70;99.90
28530;DHT22;15737;49.760;6.632;2023-02-04T06:02:23;6.70;99.90
28530;DHT22;15737;49.760;6.632;2023-02-04T06:04:48;6.70;99.90
28530;DHT22;15737;49.760;6.632;2023-02-04T06:07:14;6.70;99.90
28530;DHT22;15737;49.760;6.632;2023-02-04T06:09:39;6.70;99.90
28530;DHT22;15737;49.760;6.632;2023-02-04T06:12:05;6.70;99.90
28530;DHT22;15737;49.760;6.632;2023-02-04T06:14:30;6.60;99.90
28530;DHT22;15737;49.760;6.632;2023-02-04T06:16:56;6.50;99.90
28530;DHT22;15737;49.760;6.632;2023-02-04T06:19:21;6.30;99.90
28530;DHT22;15737;49.760;6.632;2023-02-04T06:21:47;6.20;99.90
28530;DHT22;15737;49.760;6.632;2023-02-04T06:24:12;6.10;99.90
28530;DHT22;15737;49.760;6.632;2023-02-04T06:26:38;6.00;99.90
28530;DHT22;15737;49.760;6.632;2023-02-04T06:29:03;5.90;99.90
28530;DHT22;15737;49.760;6.632;2023-02-04T06:31:29;5.90;99.90
28530;DHT22;15737;49.760;6.632;2023-02-04T06:33:55;5.80;99.90
28530;DHT22;15737;49.760;6.632;2023-02-04T06:36:20;5.80;99.90
28530;DHT22;15737;49.760;6.632;2023-02-04T06:38:46;5.70;99.90
28530;DHT22;15737;49.760;6.632;2023-02-04T06:41:11;5.60;99.90
28530;DHT22;15737;49.760;6.632;2023-02-04T06:43:37;5.50;99.90
28530;DHT22;15737;49.760;6.632;2023-02-04T06:46:02;5.40;99.90
28530;DHT22;15737;49.760;6.632;2023-02-04T06:48:28;5.30;99.90
28530;DHT22;15737;49.760;6.632;2023-02-04T06:50:53;5.20;99.90
28530;DHT22;15737;49.760;6.632;2023-02-04T06:53:19;5.20;99.90
28530;DHT22;15737;49.760;6.632;2023-02-04T06:55:44;5.10;99.90
28530;DHT22;15737;49.760;6.632;2023-02-04T06:58:10;5.00;99.90
28530;DHT22;15737;49.760;6.632;2023-02-04T07:00:35;4.90;99.90
28530;DHT22;15737;49.760;6.632;2023-02-04T07:03:01;4.80;99.90
28530;DHT22;15737;49.760;6.632;2023-02-04T07:05:26;4.80;99.90
28530;DHT22;15737;49.760;6.632;2023-02-04T07:07:52;4.80;99.90
28530;DHT22;15737;49.760;6.632;2023-02-04T07:10:17;4.90;99.90
28530;DHT22;15737;49.760;6.632;2023-02-04T07:12:45;4.90;99.90
28530;DHT22;15737;49.760;6.632;2023-02-04T07:15:11;4.80;99.90
28530;DHT22;15737;49.760;6.632;2023-02-04T07:17:36;4.70;99.90
28530;DHT22;15737;49.760;6.632;2023-02-04T07:20:02;4.60;99.90
28530;DHT22;15737;49.760;6.632;2023-02-04T07:22:27;4.60;99.90
28530;DHT22;15737;49.760;6.632;2023-02-04T07:24:53;4.60;99.90
28530;DHT22;15737;49.760;6.632;2023-02-04T07:27:18;4.60;99.90
28530;DHT22;15737;49.760;6.632;2023-02-04T07:29:44;4.60;99.90
28530;DHT22;15737;49.760;6.632;2023-02-04T07:32:09;4.80;99.90
28530;DHT22;15737;49.760;6.632;2023-02-04T07:34:35;4.80;99.90
28530;DHT22;15737;49.760;6.632;2023-02-04T07:37:00;5.10;99.90
28530;DHT22;15737;49.760;6.632;2023-02-04T07:39:26;5.50;99.90
28530;DHT22;15737;49.760;6.632;2023-02-04T07:41:51;6.50;99.90
28530;DHT22;15737;49.760;6.632;2023-02-04T07:44:17;7.30;99.90
28530;DHT22;15737;49.760;6.632;2023-02-04T07:46:42;7.20;99.90
28530;DHT22;15737;49.760;6.632;2023-02-04T07:49:08;8.70;99.90
28530;DHT22;15737;49.760;6.632;2023-02-04T07:51:33;10.30;99.90
28530;DHT22;15737;49.760;6.632;2023-02-04T07:53:59;10.50;99.90
28530;DHT22;15737;49.760;6.632;2023-02-04T07:56:25;10.90;99.90
28530;DHT22;15737;49.760;6.632;2023-02-04T07:58:51;11.90;99.90
28530;DHT22;15737;49.760;6.632;2023-02-04T08:01:16;13.00;99.90
28530;DHT22;15737;49.760;6.632;2023-02-04T08:03:42;14.00;99.90
28530;DHT22;15737;49.760;6.632;2023-02-04T08:06:08;13.90;99.90
28530;DHT22;15737;49.760;6.632;2023-02-04T08:08:33;13.00;99.90
28530;DHT22;15737;49.760;6.632;2023-02-04T08:10:59;11.90;99.90
28530;DHT22;15737;49.760;6.632;2023-02-04T08:13:24;10.90;99.90
28530;DHT22;15737;49.760;6.632;2023-02-04T08:15:50;11.10;99.90
28530;DHT22;15737;49.760;6.632;2023-02-04T08:18:16;11.40;99.90
28530;DHT22;15737;49.760;6.632;2023-02-04T08:20:41;12.70;99.90
28530;DHT22;15737;49.760;6.632;2023-02-04T08:23:07;13.70;99.90
28530;DHT22;15737;49.760;6.632;2023-02-04T08:25:33;15.10;99.90
28530;DHT22;15737;49.760;6.632;2023-02-04T08:27:58;17.10;99.90
28530;DHT22;15737;49.760;6.632;2023-02-04T08:30:24;18.90;99.90
28530;DHT22;15737;49.760;6.632;2023-02-04T08:32:49;19.50;99.90
28530;DHT22;15737;49.760;6.632;2023-02-04T08:35:15;20.00;99.90
28530;DHT22;15737;49.760;6.632;2023-02-04T08:37:40;21.70;99.90
28530;DHT22;15737;49.760;6.632;2023-02-04T08:40:06;21.40;99.90
28530;DHT22;15737;49.760;6.632;2023-02-04T08:42:31;19.70;99.90
28530;DHT22;15737;49.760;6.632;2023-02-04T08:44:59;19.00;99.90
28530;DHT22;15737;49.760;6.632;2023-02-04T08:47:24;18.40;99.90
28530;DHT22;15737;49.760;6.632;2023-02-04T08:49:50;17.70;99.90
28530;DHT22;15737;49.760;6.632;2023-02-04T08:52:15;18.30;99.90
28530;DHT22;15737;49.760;6.632;2023-02-04T08:54:41;19.50;99.90
28530;DHT22;15737;49.760;6.632;2023-02-04T08:57:06;20.20;99.60
28530;DHT22;15737;49.760;6.632;2023-02-04T08:59:32;20.10;98.40
28530;DHT22;15737;49.760;6.632;2023-02-04T09:01:57;20.40;98.20
28530;DHT22;15737;49.760;6.632;2023-02-04T09:04:23;20.90;97.40
28530;DHT22;15737;49.760;6.632;2023-02-04T09:06:49;21.60;96.10
28530;DHT22;15737;49.760;6.632;2023-02-04T09:09:15;22.00;94.30
28530;DHT22;15737;49.760;6.632;2023-02-04T09:11:41;21.30;92.80
28530;DHT22;15737;49.760;6.632;2023-02-04T09:14:07;20.90;94.20
28530;DHT22;15737;49.760;6.632;2023-02-04T09:16:33;21.00;93.70
28530;DHT22;15737;49.760;6.632;2023-02-04T09:18:58;21.50;92.50
28530;DHT22;15737;49.760;6.632;2023-02-04T09:21:26;21.50;91.50
28530;DHT22;15737;49.760;6.632;2023-02-04T09:23:52;20.90;91.60
28530;DHT22;15737;49.760;6.632;2023-02-04T09:26:17;20.60;91.80
28530;DHT22;15737;49.760;6.632;2023-02-04T09:28:43;20.80;92.00
28530;DHT22;15737;49.760;6.632;2023-02-04T09:31:09;21.60;90.60
28530;DHT22;15737;49.760;6.632;2023-02-04T09:33:35;21.80;90.40
28530;DHT22;15737;49.760;6.632;2023-02-04T09:36:00;22.80;89.80
28530;DHT22;15737;49.760;6.632;2023-02-04T09:38:26;24.00;86.40
28530;DHT22;15737;49.760;6.632;2023-02-04T09:41:03;23.90;81.90
28530;DHT22;15737;49.760;6.632;2023-02-04T09:43:33;22.50;81.90
28530;DHT22;15737;49.760;6.632;2023-02-04T09:46:00;22.40;83.80
28530;DHT22;15737;49.760;6.632;2023-02-04T09:48:26;23.70;82.70
28530;DHT22;15737;49.760;6.632;2023-02-04T09:50:56;24.60;77.30
28530;DHT22;15737;49.760;6.632;2023-02-04T09:53:28;23.10;75.50
28530;DHT22;15737;49.760;6.632;2023-02-04T09:55:54;22.20;76.10
28530;DHT22;15737;49.760;6.632;2023-02-04T09:58:21;20.60;77.90
28530;DHT22;15737;49.760;6.632;2023-02-04T10:00:55;19.00;80.30
28530;DHT22;15737;49.760;6.632;2023-02-04T10:03:22;17.80;86.20
28530;DHT22;15737;49.760;6.632;2023-02-04T10:05:48;19.60;85.30
28530;DHT22;15737;49.760;6.632;2023-02-04T10:08:16;22.10;80.50
28530;DHT22;15737;49.760;6.632;2023-02-04T10:10:44;23.40;74.80
28530;DHT22;15737;49.760;6.632;2023-02-04T10:13:26;22.60;74.60
28530;DHT22;15737;49.760;6.632;2023-02-04T10:15:54;22.60;75.70
28530;DHT22;15737;49.760;6.632;2023-02-04T10:18:31;22.10;75.00
28530;DHT22;15737;49.760;6.632;2023-02-04T10:21:17;20.80;76.80
28530;DHT22;15737;49.760;6.632;2023-02-04T10:23:47;18.80;80.10
28530;DHT22;15737;49.760;6.632;2023-02-04T10:26:15;17.40;83.90
28530;DHT22;15737;49.760;6.632;2023-02-04T10:28:42;17.80;84.30
28530;DHT22;15737;49.760;6.632;2023-02-04T10:36:36;24.10;73.10
28530;DHT22;15737;49.760;6.632;2023-02-04T10:39:04;25.50;68.70
28530;DHT22;15737;49.760;6.632;2023-02-04T10:41:30;24.50;65.00
28530;DHT22;15737;49.760;6.632;2023-02-04T10:44:12;21.00;67.60
28530;DHT22;15737;49.760;6.632;2023-02-04T10:46:38;17.80;76.30
28530;DHT22;15737;49.760;6.632;2023-02-04T10:49:14;16.80;80.90
28530;DHT22;15737;49.760;6.632;2023-02-04T10:51:41;16.40;82.70
28530;DHT22;15737;49.760;6.632;2023-02-04T10:54:10;15.30;81.90
28530;DHT22;15737;49.760;6.632;2023-02-04T10:57:22;13.50;84.00
28530;DHT22;15737;49.760;6.632;2023-02-04T10:59:50;12.10;87.90
28530;DHT22;15737;49.760;6.632;2023-02-04T11:02:43;11.50;89.80
28530;DHT22;15737;49.760;6.632;2023-02-04T11:05:15;12.00;90.70
28530;DHT22;15737;49.760;6.632;2023-02-04T11:07:41;12.90;90.20
28530;DHT22;15737;49.760;6.632;2023-02-04T11:10:13;13.40;88.50
28530;DHT22;15737;49.760;6.632;2023-02-04T11:12:41;13.10;87.70
28530;DHT22;15737;49.760;6.632;2023-02-04T11:15:46;12.50;89.60
28530;DHT22;15737;49.760;6.632;2023-02-04T11:20:44;12.10;90.30
28530;DHT22;15737;49.760;6.632;2023-02-04T11:23:28;11.40;90.90
28530;DHT22;15737;49.760;6.632;2023-02-04T11:26:15;10.90;91.60
28530;DHT22;15737;49.760;6.632;2023-02-04T11:39:32;12.40;92.10
28530;DHT22;15737;49.760;6.632;2023-02-04T11:41:59;12.40;92.20
28530;DHT22;15737;49.760;6.632;2023-02-04T11:44:25;12.00;92.40
28530;DHT22;15737;49.760;6.632;2023-02-04T11:46:52;11.90;92.90
28530;DHT22;15737;49.760;6.632;2023-02-04T11:49:22;11.90;92.90
28530;DHT22;15737;49.760;6.632;2023-02-04T11:51:48;11.50;93.30
28530;DHT22;15737;49.760;6.632;2023-02-04T11:54:16;11.50;93.70
28530;DHT22;15737;49.760;6.632;2023-02-04T11:56:47;11.70;93.80
28530;DHT22;15737;49.760;6.632;2023-02-04T11:59:16;12.10;93.80
28530;DHT22;15737;49.760;6.632;2023-02-04T12:01:45;12.10;93.50
28530;DHT22;15737;49.760;6.632;2023-02-04T12:04:24;11.60;92.50
28530;DHT22;15737;49.760;6.632;2023-02-04T12:07:01;11.20;93.60
28530;DHT22;15737;49.760;6.632;2023-02-04T12:09:29;11.60;94.00
28530;DHT22;15737;49.760;6.632;2023-02-04T12:11:57;11.80;93.60
28530;DHT22;15737;49.760;6.632;2023-02-04T12:14:34;12.10;93.70
28530;DHT22;15737;49.760;6.632;2023-02-04T12:17:15;12.20;93.30
28530;DHT22;15737;49.760;6.632;2023-02-04T12:19:41;12.00;93.70
28530;DHT22;15737;49.760;6.632;2023-02-04T12:22:06;12.00;93.60
28530;DHT22;15737;49.760;6.632;2023-02-04T12:24:32;12.20;93.60
28530;DHT22;15737;49.760;6.632;2023-02-04T12:26:57;12.10;93.00
28530;DHT22;15737;49.760;6.632;2023-02-04T12:29:23;12.10;93.60
28530;DHT22;15737;49.760;6.632;2023-02-04T12:31:48;12.60;93.50
28530;DHT22;15737;49.760;6.632;2023-02-04T12:34:14;13.20;93.20
28530;DHT22;15737;49.760;6.632;2023-02-04T12:36:41;13.40;93.00
28530;DHT22;15737;49.760;6.632;2023-02-04T12:39:07;13.60;92.80
28530;DHT22;15737;49.760;6.632;2023-02-04T12:41:32;13.70;92.80
28530;DHT22;15737;49.760;6.632;2023-02-04T12:43:58;13.60;93.20
28530;DHT22;15737;49.760;6.632;2023-02-04T12:46:25;13.80;93.10
28530;DHT22;15737;49.760;6.632;2023-02-04T12:48:51;14.10;92.90
28530;DHT22;15737;49.760;6.632;2023-02-04T12:51:17;13.70;92.50
28530;DHT22;15737;49.760;6.632;2023-02-04T12:53:45;13.50;93.10
28530;DHT22;15737;49.760;6.632;2023-02-04T12:56:11;13.20;93.30
28530;DHT22;15737;49.760;6.632;2023-02-04T12:58:36;13.20;93.40
28530;DHT22;15737;49.760;6.632;2023-02-04T13:01:02;12.90;93.30
28530;DHT22;15737;49.760;6.632;2023-02-04T13:03:27;13.00;93.70
28530;DHT22;15737;49.760;6.632;2023-02-04T13:05:53;13.30;93.60
28530;DHT22;15737;49.760;6.632;2023-02-04T13:08:19;13.30;93.40
28530;DHT22;15737;49.760;6.632;2023-02-04T13:10:44;13.40;93.50
28530;DHT22;15737;49.760;6.632;2023-02-04T13:13:14;13.60;93.40
28530;DHT22;15737;49.760;6.632;2023-02-04T13:18:10;14.00;92.80
28530;DHT22;15737;49.760;6.632;2023-02-04T13:20:36;13.80;92.60
28530;DHT22;15737;49.760;6.632;2023-02-04T13:23:01;13.90;92.80
28530;DHT22;15737;49.760;6.632;2023-02-04T13:25:27;13.70;92.90
28530;DHT22;15737;49.760;6.632;2023-02-04T13:27:52;13.60;92.70
28530;DHT22;15737;49.760;6.632;2023-02-04T14:32:27;14.00;92.60
28530;DHT22;15737;49.760;6.632;2023-02-04T14:34:52;13.70;92.70
28530;DHT22;15737;49.760;6.632;2023-02-04T14:37:18;13.00;92.60
28530;DHT22;15737;49.760;6.632;2023-02-04T14:42:18;12.10;93.80
28530;DHT22;15737;49.760;6.632;2023-02-04T14:44:46;12.00;94.00
28530;DHT22;15737;49.760;6.632;2023-02-04T14:47:12;12.10;94.10
28530;DHT22;15737;49.760;6.632;2023-02-04T14:49:37;12.30;94.00
28530;DHT22;15737;49.760;6.632;2023-02-04T14:52:03;12.60;93.90
28530;DHT22;15737;49.760;6.632;2023-02-04T14:54:30;12.40;93.60
28530;DHT22;15737;49.760;6.632;2023-02-04T14:56:55;12.10;93.80
28530;DHT22;15737;49.760;6.632;2023-02-04T15:00:01;11.90;93.90
28530;DHT22;15737;49.760;6.632;2023-02-04T15:02:27;11.60;94.20
28530;DHT22;15737;49.760;6.632;2023-02-04T15:05:08;11.70;94.40
28530;DHT22;15737;49.760;6.632;2023-02-04T15:07:52;11.90;94.50
28530;DHT22;15737;49.760;6.632;2023-02-04T15:10:17;12.00;94.30
28530;DHT22;15737;49.760;6.632;2023-02-04T15:15:13;12.30;94.00
28530;DHT22;15737;49.760;6.632;2023-02-04T15:17:39;12.00;93.50
28530;DHT22;15737;49.760;6.632;2023-02-04T15:20:05;11.60;93.80
28530;DHT22;15737;49.760;6.632;2023-02-04T15:22:32;11.30;94.30
28530;DHT22;15737;49.760;6.632;2023-02-04T15:24:57;11.10;94.40
28530;DHT22;15737;49.760;6.632;2023-02-04T15:27:23;11.00;94.50
28530;DHT22;15737;49.760;6.632;2023-02-04T15:30:08;10.90;94.60
28530;DHT22;15737;49.760;6.632;2023-02-04T15:32:34;10.80;94.60
28530;DHT22;15737;49.760;6.632;2023-02-04T15:34:59;10.70;94.70
28530;DHT22;15737;49.760;6.632;2023-02-04T15:37:26;10.50;94.80
28530;DHT22;15737;49.760;6.632;2023-02-04T15:39:52;10.50;94.90
28530;DHT22;15737;49.760;6.632;2023-02-04T15:42:18;10.70;95.00
28530;DHT22;15737;49.760;6.632;2023-02-04T15:44:43;11.00;95.00
28530;DHT22;15737;49.760;6.632;2023-02-04T15:47:09;11.40;94.80
28530;DHT22;15737;49.760;6.632;2023-02-04T15:49:34;11.60;94.60
28530;DHT22;15737;49.760;6.632;2023-02-04T15:52:03;11.80;94.50
28530;DHT22;15737;49.760;6.632;2023-02-04T16:00:05;11.80;94.50
28530;DHT22;15737;49.760;6.632;2023-02-04T16:02:31;11.60;94.60
28530;DHT22;15737;49.760;6.632;2023-02-04T16:04:57;11.60;94.80
28530;DHT22;15737;49.760;6.632;2023-02-04T16:07:23;11.40;94.90
28530;DHT22;15737;49.760;6.632;2023-02-04T16:09:49;11.20;95.20
28530;DHT22;15737;49.760;6.632;2023-02-04T16:12:14;11.10;95.50
28530;DHT22;15737;49.760;6.632;2023-02-04T16:14:57;11.20;95.70
28530;DHT22;15737;49.760;6.632;2023-02-04T16:17:23;11.20;95.80
28530;DHT22;15737;49.760;6.632;2023-02-04T16:19:49;11.20;95.80
28530;DHT22;15737;49.760;6.632;2023-02-04T16:22:14;11.20;95.90
28530;DHT22;15737;49.760;6.632;2023-02-04T16:24:40;11.10;96.00
28530;DHT22;15737;49.760;6.632;2023-02-04T16:27:07;11.10;96.20
28530;DHT22;15737;49.760;6.632;2023-02-04T16:29:33;11.10;96.30
28530;DHT22;15737;49.760;6.632;2023-02-04T16:32:01;11.10;96.50
28530;DHT22;15737;49.760;6.632;2023-02-04T16:34:27;11.10;96.60
28530;DHT22;15737;49.760;6.632;2023-02-04T16:36:53;11.00;96.70
28530;DHT22;15737;49.760;6.632;2023-02-04T16:41:57;10.90;96.90
28530;DHT22;15737;49.760;6.632;2023-02-04T16:44:23;10.90;97.10
28530;DHT22;15737;49.760;6.632;2023-02-04T16:46:49;10.80;97.20
28530;DHT22;15737;49.760;6.632;2023-02-04T16:49:15;10.80;97.50
28530;DHT22;15737;49.760;6.632;2023-02-04T16:51:41;10.60;97.50
28530;DHT22;15737;49.760;6.632;2023-02-04T16:59:19;10.20;97.90
28530;DHT22;15737;49.760;6.632;2023-02-04T17:01:44;9.90;98.60
28530;DHT22;15737;49.760;6.632;2023-02-04T17:04:09;9.70;99.00
28530;DHT22;15737;49.760;6.632;2023-02-04T17:06:35;9.50;99.40
28530;DHT22;15737;49.760;6.632;2023-02-04T17:09:01;9.30;99.90
28530;DHT22;15737;49.760;6.632;2023-02-04T17:11:26;9.20;99.90
28530;DHT22;15737;49.760;6.632;2023-02-04T17:14:06;9.10;99.90
28530;DHT22;15737;49.760;6.632;2023-02-04T17:16:34;9.10;99.90
28530;DHT22;15737;49.760;6.632;2023-02-04T17:18:59;9.10;99.90
28530;DHT22;15737;49.760;6.632;2023-02-04T17:21:28;9.10;99.90
28530;DHT22;15737;49.760;6.632;2023-02-04T17:29:14;9.30;99.90
28530;DHT22;15737;49.760;6.632;2023-02-04T17:31:48;9.50;99.90
28530;DHT22;15737;49.760;6.632;2023-02-04T17:34:14;9.70;99.90